Time;durP1;ratioP1;P1;durP2;ratioP2;P2;SDS_P1;SDS_P2;PMS_P1;PMS_P2;Temp;Humidity;BMP_temperature;BMP_pressure;BME280_temperature;BME280_humidity;BME280_pressure;Samples;Min_cycle;Max_cycle;Signal;HPM_P1;HPM_P2
2022/04/20 00:01:20;;;;;;;18.52;12.98;;;;;;;;;;5029287;28;20028;-79
2022/04/20 00:03:45;;;;;;;18.65;12.30;;;;;;;;;;5033216;28;20155;-78
2022/04/20 00:06:11;;;;;;;18.33;11.93;;;;;;;;;;5033052;28;20029;-78
2022/04/20 00:08:37;;;;;;;19.85;13.27;;;;;;;;;;5033597;28;20045;-78
2022/04/20 00:11:04;;;;;;;17.48;12.13;;;;;;;;;;5025072;28;20022;-78
2022/04/20 00:13:30;;;;;;;17.80;11.77;;;;;;;;;;5013878;28;20022;-79
2022/04/20 00:15:56;;;;;;;18.00;12.00;;;;;;;;;;5052760;28;20502;-79
2022/04/20 00:18:22;;;;;;;18.15;11.98;;;;;;;;;;5047744;28;20115;-78
2022/04/20 00:20:48;;;;;;;19.73;12.88;;;;;;;;;;5028327;28;20021;-78
2022/04/20 00:23:14;;;;;;;19.30;13.30;;;;;;;;;;5016294;28;20056;-78
2022/04/20 00:25:40;;;;;;;22.58;14.13;;;;;;;;;;5050335;28;20021;-78
2022/04/20 00:28:06;;;;;;;20.50;12.68;;;;;;;;;;5051380;28;20021;-78
2022/04/20 00:30:32;;;;;;;20.75;12.55;;;;;;;;;;5045400;28;20472;-80
2022/04/20 00:32:59;;;;;;;20.67;13.13;;;;;;;;;;5034602;28;20029;-78
2022/04/20 00:35:25;;;;;;;19.85;12.75;;;;;;;;;;5049867;28;20025;-78
2022/04/20 00:37:51;;;;;;;20.17;13.02;;;;;;;;;;5055074;28;20025;-78
2022/04/20 00:40:17;;;;;;;19.88;13.48;;;;;;;;;;5050527;28;20100;-78
2022/04/20 00:42:44;;;;;;;18.88;12.52;;;;;;;;;;5034354;28;20059;-80
2022/04/20 00:45:11;;;;;;;19.08;12.88;;;;;;;;;;5048978;28;20028;-79
2022/04/20 00:47:37;;;;;;;18.73;12.05;;;;;;;;;;5052137;28;20037;-80
2022/04/20 00:50:04;;;;;;;18.10;12.82;;;;;;;;;;5055648;28;20021;-80
2022/04/20 00:52:31;;;;;;;17.48;11.80;;;;;;;;;;5015601;28;20101;-80
2022/04/20 00:54:58;;;;;;;18.80;12.25;;;;;;;;;;5040117;28;20032;-80
2022/04/20 00:57:24;;;;;;;15.88;10.70;;;;;;;;;;5047887;28;20025;-80
2022/04/20 00:59:51;;;;;;;17.00;10.60;;;;;;;;;;5034949;28;20096;-80
2022/04/20 01:02:17;;;;;;;17.25;11.88;;;;;;;;;;5035797;28;20109;-80
2022/04/20 01:04:43;;;;;;;18.23;12.10;;;;;;;;;;5045605;28;20395;-80
2022/04/20 01:07:13;;;;;;;16.58;11.68;;;;;;;;;;5055418;28;20021;-80
2022/04/20 01:09:39;;;;;;;18.13;11.98;;;;;;;;;;5056749;28;20027;-80
2022/04/20 01:12:06;;;;;;;19.50;12.77;;;;;;;;;;5038491;28;20033;-80
2022/04/20 01:14:32;;;;;;;16.88;12.25;;;;;;;;;;5046148;28;20370;-80
2022/04/20 01:16:58;;;;;;;17.30;13.02;;;;;;;;;;5042122;28;20116;-80
2022/04/20 01:19:31;;;;;;;20.33;13.95;;;;;;;;;;5037031;28;20049;-80
2022/04/20 01:21:57;;;;;;;18.38;12.38;;;;;;;;;;5035057;28;20112;-80
2022/04/20 01:24:23;;;;;;;19.45;13.55;;;;;;;;;;5029767;28;20022;-80
2022/04/20 01:26:52;;;;;;;19.33;12.25;;;;;;;;;;5019928;28;20558;-80
2022/04/20 01:29:18;;;;;;;18.58;12.75;;;;;;;;;;5035522;28;20048;-80
2022/04/20 01:31:44;;;;;;;18.92;11.93;;;;;;;;;;5040048;28;20029;-80
2022/04/20 01:34:10;;;;;;;19.20;12.55;;;;;;;;;;5043405;28;20379;-80
2022/04/20 01:36:37;;;;;;;18.35;12.13;;;;;;;;;;5056389;28;20037;-80
2022/04/20 01:39:03;;;;;;;18.25;12.80;;;;;;;;;;5047621;28;20042;-80
2022/04/20 01:41:29;;;;;;;19.92;13.45;;;;;;;;;;5033398;28;20395;-78
2022/04/20 01:43:55;;;;;;;20.67;13.10;;;;;;;;;;5022957;28;20027;-78
2022/04/20 01:46:22;;;;;;;19.08;12.40;;;;;;;;;;5039758;28;20071;-78
2022/04/20 01:48:48;;;;;;;19.15;13.60;;;;;;;;;;5035048;28;20040;-78
2022/04/20 01:53:58;;;;;;;17.30;11.73;;;;;;;;;;5020760;28;20510;-78
2022/04/20 01:56:24;;;;;;;18.83;12.30;;;;;;;;;;5034537;28;20030;-78
2022/04/20 01:58:50;;;;;;;19.02;12.52;;;;;;;;;;5043779;28;20029;-80
2022/04/20 02:04:01;;;;;;;17.67;12.23;;;;;;;;;;5040229;28;20448;-80
2022/04/20 02:06:27;;;;;;;16.20;11.75;;;;;;;;;;5052431;28;20026;-80
2022/04/20 02:08:53;;;;;;;15.88;11.20;;;;;;;;;;5034806;28;20041;-80
2022/04/20 02:11:18;;;;;;;17.83;11.90;;;;;;;;;;5021140;28;20504;-80
2022/04/20 02:13:44;;;;;;;16.13;10.95;;;;;;;;;;5031087;28;20026;-80
2022/04/20 02:16:10;;;;;;;17.27;11.35;;;;;;;;;;5054622;28;20442;-80
2022/04/20 02:18:36;;;;;;;16.00;11.23;;;;;;;;;;5048732;28;20104;-80
2022/04/20 02:21:02;;;;;;;19.25;11.95;;;;;;;;;;5034407;28;20030;-80
2022/04/20 02:23:28;;;;;;;17.10;10.75;;;;;;;;;;5033565;28;20127;-80
2022/04/20 02:25:54;;;;;;;17.70;12.05;;;;;;;;;;5034903;28;20447;-80
2022/04/20 02:28:20;;;;;;;17.90;11.85;;;;;;;;;;5044175;28;20115;-80
2022/04/20 02:30:46;;;;;;;16.90;10.90;;;;;;;;;;5054615;28;20487;-81
2022/04/20 02:33:12;;;;;;;16.55;11.25;;;;;;;;;;5031611;28;20034;-80
2022/04/20 02:35:40;;;;;;;17.13;12.07;;;;;;;;;;5026316;28;20087;-80
2022/04/20 02:38:06;;;;;;;16.98;11.38;;;;;;;;;;5014684;28;20437;-80
2022/04/20 02:40:32;;;;;;;16.67;12.00;;;;;;;;;;5015085;28;20091;-80
2022/04/20 02:42:58;;;;;;;17.92;12.85;;;;;;;;;;5032693;28;20036;-80
2022/04/20 02:45:25;;;;;;;18.02;12.18;;;;;;;;;;5026495;28;20036;-80
2022/04/20 02:47:51;;;;;;;19.52;12.35;;;;;;;;;;5016562;28;20104;-80
2022/04/20 02:50:17;;;;;;;18.65;12.93;;;;;;;;;;5034220;28;20115;-80
2022/04/20 02:52:43;;;;;;;18.83;11.65;;;;;;;;;;5034561;28;20029;-79
2022/04/20 02:55:09;;;;;;;20.30;13.25;;;;;;;;;;5032963;28;20330;-80
2022/04/20 02:57:35;;;;;;;18.13;12.77;;;;;;;;;;5036696;28;20036;-80
2022/04/20 03:00:01;;;;;;;19.27;12.75;;;;;;;;;;5031332;28;20399;-78
2022/04/20 03:02:27;;;;;;;22.05;13.55;;;;;;;;;;5033141;28;20025;-80
2022/04/20 03:04:54;;;;;;;18.88;12.50;;;;;;;;;;5044894;28;20407;-80
2022/04/20 03:07:20;;;;;;;20.17;13.07;;;;;;;;;;5053361;28;20392;-78
2022/04/20 03:09:46;;;;;;;20.42;12.57;;;;;;;;;;5050608;28;20043;-78
2022/04/20 03:12:12;;;;;;;22.65;13.93;;;;;;;;;;5026171;28;20043;-79
2022/04/20 03:14:38;;;;;;;20.98;13.50;;;;;;;;;;5040041;28;20029;-80
2022/04/20 03:17:04;;;;;;;20.10;13.43;;;;;;;;;;5024428;28;20030;-80
2022/04/20 03:19:30;;;;;;;20.88;12.60;;;;;;;;;;5016032;28;20048;-78
2022/04/20 03:21:57;;;;;;;23.05;13.73;;;;;;;;;;5028561;28;20064;-79
2022/04/20 03:24:23;;;;;;;20.75;13.30;;;;;;;;;;5039313;28;20036;-78
2022/04/20 03:26:49;;;;;;;21.17;13.38;;;;;;;;;;5037912;28;20014;-78
2022/04/20 03:29:15;;;;;;;18.02;12.32;;;;;;;;;;5036979;28;20010;-78
2022/04/20 03:31:41;;;;;;;18.67;12.55;;;;;;;;;;5042547;28;20324;-78
2022/04/20 03:34:07;;;;;;;17.73;12.02;;;;;;;;;;5054622;28;20025;-78
2022/04/20 03:36:34;;;;;;;18.83;12.65;;;;;;;;;;5037007;28;20387;-79
2022/04/20 03:39:00;;;;;;;18.95;13.00;;;;;;;;;;5039624;28;20041;-78
2022/04/20 03:41:26;;;;;;;20.17;12.98;;;;;;;;;;5036607;28;20553;-78
2022/04/20 03:43:53;;;;;;;19.45;12.40;;;;;;;;;;5027530;28;20026;-80
2022/04/20 03:46:19;;;;;;;17.83;12.60;;;;;;;;;;5029745;28;20037;-80
2022/04/20 03:48:45;;;;;;;23.15;14.35;;;;;;;;;;5035752;28;20037;-80
2022/04/20 03:51:11;;;;;;;20.08;12.82;;;;;;;;;;5022350;28;20030;-80
2022/04/20 03:53:37;;;;;;;19.17;12.80;;;;;;;;;;5019002;28;20037;-80
2022/04/20 03:56:04;;;;;;;22.30;13.95;;;;;;;;;;5052826;28;20368;-80
2022/04/20 03:58:30;;;;;;;19.88;12.65;;;;;;;;;;5034605;28;20499;-81
2022/04/20 04:00:56;;;;;;;19.50;12.98;;;;;;;;;;5042633;28;20035;-80
2022/04/20 04:03:22;;;;;;;24.05;13.80;;;;;;;;;;5053854;28;20021;-79
2022/04/20 04:05:48;;;;;;;19.40;12.82;;;;;;;;;;5052597;28;20089;-79
2022/04/20 04:08:14;;;;;;;19.98;13.18;;;;;;;;;;5056672;28;20025;-79
2022/04/20 04:10:40;;;;;;;19.48;13.20;;;;;;;;;;5060462;28;20025;-80
2022/04/20 04:13:06;;;;;;;19.58;13.25;;;;;;;;;;5046725;28;20097;-80
2022/04/20 04:15:33;;;;;;;20.17;12.93;;;;;;;;;;5048928;28;20021;-80
2022/04/20 04:18:00;;;;;;;18.20;12.32;;;;;;;;;;5036198;28;20407;-80
2022/04/20 04:20:26;;;;;;;19.38;13.38;;;;;;;;;;5054895;28;20017;-80
2022/04/20 04:22:53;;;;;;;19.25;13.07;;;;;;;;;;5051622;28;20100;-80
2022/04/20 04:25:19;;;;;;;20.35;14.23;;;;;;;;;;5036195;28;20022;-80
2022/04/20 04:27:45;;;;;;;21.17;13.70;;;;;;;;;;5035987;28;20029;-80
2022/04/20 04:30:12;;;;;;;21.05;14.05;;;;;;;;;;5039876;28;20048;-80
2022/04/20 04:32:38;;;;;;;22.00;15.35;;;;;;;;;;5036248;28;20547;-80
2022/04/20 04:35:04;;;;;;;21.83;14.65;;;;;;;;;;5043171;28;20116;-80
2022/04/20 04:37:30;;;;;;;24.27;16.20;;;;;;;;;;5035117;28;20025;-80
2022/04/20 04:39:56;;;;;;;22.58;15.15;;;;;;;;;;5034881;28;20018;-80
2022/04/20 04:42:22;;;;;;;23.48;15.00;;;;;;;;;;5034457;28;20036;-80
2022/04/20 04:44:48;;;;;;;23.98;15.15;;;;;;;;;;5042840;28;20085;-80
2022/04/20 04:49:59;;;;;;;24.40;15.43;;;;;;;;;;5034143;28;20090;-79
2022/04/20 04:52:25;;;;;;;28.63;16.55;;;;;;;;;;5034294;28;20116;-80
2022/04/20 04:54:51;;;;;;;24.60;15.65;;;;;;;;;;5036123;28;20398;-79
2022/04/20 04:57:17;;;;;;;23.23;14.27;;;;;;;;;;5037184;28;20511;-80
2022/04/20 04:59:45;;;;;;;22.10;14.63;;;;;;;;;;5039272;28;20071;-79
2022/04/20 05:02:11;;;;;;;21.38;14.55;;;;;;;;;;5027246;28;20492;-79
2022/04/20 05:04:39;;;;;;;21.70;14.43;;;;;;;;;;5043607;28;20044;-80
2022/04/20 05:07:05;;;;;;;21.98;13.57;;;;;;;;;;5036439;28;20029;-80
2022/04/20 05:09:31;;;;;;;20.95;14.20;;;;;;;;;;5043061;28;20067;-79
2022/04/20 05:11:58;;;;;;;20.23;14.25;;;;;;;;;;5037867;28;20035;-80
2022/04/20 05:14:24;;;;;;;20.17;12.55;;;;;;;;;;5032744;28;20029;-80
2022/04/20 05:16:50;;;;;;;22.02;14.32;;;;;;;;;;5031233;28;20029;-80
2022/04/20 05:19:16;;;;;;;20.98;13.98;;;;;;;;;;5044527;28;20083;-79
2022/04/20 05:21:43;;;;;;;18.92;12.57;;;;;;;;;;5040790;28;20021;-79
2022/04/20 05:24:09;;;;;;;21.35;13.43;;;;;;;;;;5035022;28;20436;-79
2022/04/20 05:26:35;;;;;;;20.17;13.55;;;;;;;;;;5026690;28;20053;-80
2022/04/20 05:29:01;;;;;;;20.88;12.88;;;;;;;;;;5034642;28;20037;-80
2022/04/20 05:31:27;;;;;;;20.02;12.68;;;;;;;;;;5036312;28;20029;-80
2022/04/20 05:33:53;;;;;;;19.80;13.10;;;;;;;;;;5041747;28;20022;-80
2022/04/20 05:36:19;;;;;;;19.30;13.52;;;;;;;;;;5036408;28;20034;-80
2022/04/20 05:41:40;;;;;;;19.85;13.18;;;;;;;;;;5029767;28;20028;-80
2022/04/20 05:44:06;;;;;;;19.67;13.10;;;;;;;;;;5035539;28;20075;-80
2022/04/20 05:46:33;;;;;;;19.30;13.25;;;;;;;;;;5050671;28;20025;-80
2022/04/20 05:48:59;;;;;;;20.25;12.98;;;;;;;;;;5033151;28;20032;-80
2022/04/20 05:51:25;;;;;;;19.88;13.48;;;;;;;;;;5037823;28;20466;-81
2022/04/20 05:53:51;;;;;;;18.70;12.68;;;;;;;;;;5044366;28;20059;-80
2022/04/20 05:56:17;;;;;;;19.75;13.25;;;;;;;;;;5053144;28;20709;-81
2022/04/20 05:58:46;;;;;;;19.45;13.23;;;;;;;;;;5040035;28;20022;-80
2022/04/20 06:01:12;;;;;;;18.85;12.93;;;;;;;;;;5021212;28;20061;-81
2022/04/20 06:03:38;;;;;;;17.77;12.82;;;;;;;;;;5038025;28;20029;-80
2022/04/20 06:06:04;;;;;;;19.33;12.88;;;;;;;;;;5039178;28;20045;-81
2022/04/20 06:08:31;;;;;;;19.83;13.48;;;;;;;;;;5039321;28;20033;-80
2022/04/20 06:10:58;;;;;;;18.08;12.65;;;;;;;;;;5037983;28;20323;-81
2022/04/20 06:13:24;;;;;;;20.25;13.75;;;;;;;;;;5044877;28;20025;-80
2022/04/20 06:15:50;;;;;;;18.77;12.60;;;;;;;;;;5059904;28;20031;-80
2022/04/20 06:18:17;;;;;;;19.38;13.02;;;;;;;;;;5059151;28;20107;-81
2022/04/20 06:20:43;;;;;;;17.42;12.20;;;;;;;;;;5057132;28;20051;-81
2022/04/20 06:23:09;;;;;;;17.98;12.35;;;;;;;;;;5039244;28;20021;-81
2022/04/20 06:25:35;;;;;;;17.05;12.90;;;;;;;;;;5047422;28;20421;-80
2022/04/20 06:28:02;;;;;;;16.67;12.32;;;;;;;;;;5059727;28;20033;-81
2022/04/20 06:30:28;;;;;;;18.02;12.10;;;;;;;;;;5058118;28;20072;-81
2022/04/20 06:32:54;;;;;;;17.23;12.65;;;;;;;;;;5058412;28;20390;-81
2022/04/20 06:35:20;;;;;;;15.50;11.93;;;;;;;;;;5042659;28;20026;-80
2022/04/20 06:37:48;;;;;;;15.30;11.77;;;;;;;;;;5055167;28;20040;-81
2022/04/20 06:40:14;;;;;;;16.30;11.98;;;;;;;;;;5058197;28;20111;-81
2022/04/20 06:42:40;;;;;;;16.90;12.00;;;;;;;;;;5056759;28;20045;-81
2022/04/20 06:45:09;;;;;;;16.85;11.02;;;;;;;;;;5045642;28;20032;-81
2022/04/20 06:47:35;;;;;;;17.00;11.90;;;;;;;;;;5059491;28;20043;-81
2022/04/20 06:50:01;;;;;;;16.23;12.63;;;;;;;;;;5056077;28;20033;-81
2022/04/20 07:00:41;;;;;;;15.02;11.93;;;;;;;;;;5038627;28;20422;-82
2022/04/20 07:03:07;;;;;;;17.08;12.30;;;;;;;;;;5053474;28;20106;-82
2022/04/20 07:05:33;;;;;;;16.08;12.13;;;;;;;;;;5059036;28;20037;-81
2022/04/20 07:08:03;;;;;;;17.30;12.88;;;;;;;;;;5042844;28;20113;-82
2022/04/20 07:10:31;;;;;;;18.23;13.05;;;;;;;;;;5047853;28;20087;-82
2022/04/20 07:12:57;;;;;;;15.57;11.30;;;;;;;;;;5058730;28;20039;-82
2022/04/20 07:15:25;;;;;;;15.43;12.27;;;;;;;;;;5057679;28;20079;-81
2022/04/20 07:17:51;;;;;;;14.93;10.98;;;;;;;;;;5047188;28;20053;-82
2022/04/20 07:20:20;;;;;;;16.83;13.27;;;;;;;;;;5048528;28;20024;-82
2022/04/20 07:22:49;;;;;;;15.80;12.82;;;;;;;;;;5044407;28;20033;-82
2022/04/20 07:25:18;;;;;;;17.25;12.98;;;;;;;;;;5036891;28;20522;-82
2022/04/20 07:27:46;;;;;;;17.88;13.93;;;;;;;;;;5040363;28;20032;-82
2022/04/20 07:30:13;;;;;;;17.25;13.45;;;;;;;;;;5039857;28;20021;-81
2022/04/20 07:32:39;;;;;;;18.85;13.23;;;;;;;;;;5054883;28;20066;-82
2022/04/20 07:35:05;;;;;;;17.85;12.80;;;;;;;;;;5045765;28;20040;-81
2022/04/20 07:37:31;;;;;;;16.25;12.23;;;;;;;;;;5054350;28;20028;-81
2022/04/20 07:39:57;;;;;;;17.33;13.32;;;;;;;;;;5058905;28;20047;-82
2022/04/20 07:42:24;;;;;;;17.08;13.10;;;;;;;;;;5048228;28;20550;-82
2022/04/20 07:44:50;;;;;;;17.73;12.95;;;;;;;;;;5039345;28;20029;-82
2022/04/20 07:47:16;;;;;;;17.20;13.00;;;;;;;;;;5040404;28;20025;-82
2022/04/20 07:52:27;;;;;;;16.90;13.10;;;;;;;;;;5053987;28;20040;-82
2022/04/20 07:54:53;;;;;;;16.75;12.60;;;;;;;;;;5057413;28;20033;-82
2022/04/20 07:57:19;;;;;;;16.73;13.00;;;;;;;;;;5059760;28;20029;-82
2022/04/20 07:59:45;;;;;;;17.58;12.82;;;;;;;;;;5062367;28;20025;-81
2022/04/20 08:02:11;;;;;;;17.10;13.95;;;;;;;;;;5059715;28;20021;-82
2022/04/20 08:04:37;;;;;;;17.48;14.02;;;;;;;;;;5050730;28;20017;-82
2022/04/20 08:07:03;;;;;;;18.10;13.38;;;;;;;;;;5042959;28;20037;-82
2022/04/20 08:09:29;;;;;;;16.27;12.93;;;;;;;;;;5040489;28;20025;-82
2022/04/20 08:11:55;;;;;;;17.52;14.32;;;;;;;;;;5046797;28;20056;-82
2022/04/20 08:14:24;;;;;;;18.95;14.60;;;;;;;;;;5060491;28;20525;-82
2022/04/20 08:16:50;;;;;;;18.48;14.45;;;;;;;;;;5060141;28;20025;-82
2022/04/20 08:19:16;;;;;;;16.65;13.65;;;;;;;;;;5061606;28;20025;-82
2022/04/20 08:21:42;;;;;;;17.45;14.15;;;;;;;;;;5043476;28;20188;-82
2022/04/20 08:24:08;;;;;;;17.80;14.63;;;;;;;;;;5051167;28;20081;-82
2022/04/20 08:26:34;;;;;;;16.63;13.70;;;;;;;;;;5062963;28;20116;-81
2022/04/20 08:29:00;;;;;;;17.95;13.82;;;;;;;;;;5056741;28;20615;-82
2022/04/20 08:31:26;;;;;;;21.10;15.43;;;;;;;;;;5039289;28;20025;-82
2022/04/20 08:33:52;;;;;;;19.02;14.30;;;;;;;;;;5040199;28;20038;-83
2022/04/20 08:36:18;;;;;;;18.05;13.30;;;;;;;;;;5043874;28;20033;-82
2022/04/20 08:38:44;;;;;;;18.27;13.88;;;;;;;;;;5059739;28;20064;-82
2022/04/20 08:41:15;;;;;;;16.27;13.05;;;;;;;;;;5040069;28;20049;-82
2022/04/20 08:43:41;;;;;;;18.90;14.10;;;;;;;;;;5038104;28;20022;-82
2022/04/20 08:46:09;;;;;;;19.05;14.32;;;;;;;;;;5040678;28;20026;-81
2022/04/20 08:48:36;;;;;;;17.65;14.38;;;;;;;;;;5039293;28;20513;-82
2022/04/20 08:51:05;;;;;;;18.83;15.00;;;;;;;;;;5039259;28;20416;-83
2022/04/20 08:53:31;;;;;;;17.75;13.75;;;;;;;;;;5042642;28;20025;-81
2022/04/20 08:58:46;;;;;;;16.90;13.70;;;;;;;;;;5053205;28;20064;-82
2022/04/20 09:01:13;;;;;;;17.42;13.90;;;;;;;;;;5062376;28;20025;-82
2022/04/20 09:03:40;;;;;;;18.02;14.30;;;;;;;;;;5051547;28;20021;-82
2022/04/20 09:06:07;;;;;;;18.50;14.65;;;;;;;;;;5052682;28;20085;-81
2022/04/20 09:08:34;;;;;;;18.85;14.82;;;;;;;;;;5062867;28;20044;-82
2022/04/20 09:11:00;;;;;;;17.58;14.55;;;;;;;;;;5061867;28;20479;-82
2022/04/20 09:13:41;;;;;;;18.80;15.65;;;;;;;;;;5063068;28;20376;-82
2022/04/20 09:16:08;;;;;;;18.42;14.88;;;;;;;;;;5063206;28;20689;-83
2022/04/20 09:18:34;;;;;;;19.48;14.82;;;;;;;;;;5054241;28;20483;-82
2022/04/20 09:21:06;;;;;;;19.05;15.60;;;;;;;;;;5044649;28;20051;-82
2022/04/20 09:23:34;;;;;;;19.77;16.08;;;;;;;;;;5048508;28;20221;-82
2022/04/20 09:26:07;;;;;;;18.75;15.10;;;;;;;;;;5061979;28;20024;-83
2022/04/20 09:28:34;;;;;;;20.13;16.65;;;;;;;;;;5063697;28;20025;-82
2022/04/20 09:30:59;;;;;;;18.90;15.75;;;;;;;;;;5067574;28;20025;-82
2022/04/20 09:33:45;;;;;;;20.70;16.50;;;;;;;;;;5053914;28;20030;-82
2022/04/20 09:36:12;;;;;;;20.67;15.65;;;;;;;;;;5042933;28;20030;-82
2022/04/20 09:38:41;;;;;;;18.27;14.63;;;;;;;;;;5042655;28;20096;-82
2022/04/20 09:41:10;;;;;;;19.45;16.25;;;;;;;;;;5044077;28;20116;-82
2022/04/20 09:43:37;;;;;;;19.35;15.18;;;;;;;;;;5042727;28;20025;-82
2022/04/20 09:46:04;;;;;;;18.48;14.98;;;;;;;;;;5055038;28;20541;-82
2022/04/20 09:51:20;;;;;;;19.02;15.95;;;;;;;;;;5042719;28;20387;-81
2022/04/20 09:53:48;;;;;;;20.50;17.10;;;;;;;;;;5059003;28;20108;-82
2022/04/20 09:56:22;;;;;;;18.27;15.85;;;;;;;;;;5040228;28;20025;-82
2022/04/20 09:58:56;;;;;;;21.50;16.40;;;;;;;;;;5042840;28;20039;-82
2022/04/20 10:01:27;;;;;;;20.17;15.73;;;;;;;;;;5055033;28;20093;-82
2022/04/20 10:03:57;;;;;;;19.27;16.15;;;;;;;;;;5045248;28;20036;-81
2022/04/20 10:06:23;;;;;;;17.17;15.05;;;;;;;;;;5041866;28;20060;-82
2022/04/20 10:08:50;;;;;;;18.75;15.32;;;;;;;;;;5039393;28;20046;-82
2022/04/20 10:11:17;;;;;;;18.13;14.90;;;;;;;;;;5041538;28;20026;-82
2022/04/20 10:13:43;;;;;;;18.20;15.63;;;;;;;;;;5044028;28;20037;-82
2022/04/20 10:16:12;;;;;;;20.25;16.27;;;;;;;;;;5051413;28;20025;-82
2022/04/20 10:18:40;;;;;;;19.48;15.82;;;;;;;;;;5061092;28;20021;-82
2022/04/20 10:21:11;;;;;;;19.60;16.42;;;;;;;;;;5050013;28;20028;-82
2022/04/20 10:23:40;;;;;;;17.60;15.52;;;;;;;;;;5040468;28;20032;-82
2022/04/20 10:26:10;;;;;;;17.52;14.43;;;;;;;;;;5038146;28;20090;-83
2022/04/20 10:28:39;;;;;;;18.73;15.95;;;;;;;;;;5043154;28;20029;-82
2022/04/20 10:31:21;;;;;;;15.68;13.98;;;;;;;;;;5050701;28;20029;-82
2022/04/20 10:33:48;;;;;;;13.98;12.35;;;;;;;;;;5047584;28;20483;-83
2022/04/20 10:36:18;;;;;;;15.50;13.38;;;;;;;;;;5039353;28;20055;-82
2022/04/20 10:38:48;;;;;;;17.23;14.68;;;;;;;;;;5038748;28;20503;-83
2022/04/20 10:41:18;;;;;;;16.35;13.77;;;;;;;;;;5037837;28;20027;-82
2022/04/20 10:43:44;;;;;;;14.63;12.82;;;;;;;;;;5039691;28;20043;-82
2022/04/20 10:46:11;;;;;;;15.38;13.77;;;;;;;;;;5042450;28;20036;-81
2022/04/20 10:49:02;;;;;;;15.15;13.55;;;;;;;;;;5042190;28;20025;-82
2022/04/20 10:51:34;;;;;;;16.35;13.13;;;;;;;;;;5043345;28;20313;-81
2022/04/20 10:54:18;;;;;;;13.00;11.40;;;;;;;;;;5039973;28;20435;-82
2022/04/20 10:56:48;;;;;;;13.80;11.88;;;;;;;;;;5040677;28;20038;-82
2022/04/20 10:59:14;;;;;;;14.98;12.93;;;;;;;;;;5055331;28;20067;-82
2022/04/20 11:01:58;;;;;;;18.60;15.10;;;;;;;;;;5058091;28;20013;-81
2022/04/20 11:04:37;;;;;;;15.05;12.93;;;;;;;;;;5070137;28;20082;-82
2022/04/20 11:07:03;;;;;;;16.75;13.77;;;;;;;;;;5077676;28;20013;-82
2022/04/20 11:09:49;;;;;;;14.13;12.40;;;;;;;;;;5071566;28;20387;-81
2022/04/20 11:21:08;;;;;;;15.13;12.60;;;;;;;;;;5051786;28;20545;-81
2022/04/20 11:23:50;;;;;;;14.77;12.18;;;;;;;;;;5036841;28;20424;-81
2022/04/20 11:26:27;;;;;;;14.48;12.13;;;;;;;;;;5043739;28;20483;-81
2022/04/20 11:28:54;;;;;;;14.85;12.85;;;;;;;;;;5046204;28;20037;-82
2022/04/20 11:31:20;;;;;;;13.95;11.85;;;;;;;;;;5055744;28;20081;-82
2022/04/20 11:33:46;;;;;;;15.15;11.40;;;;;;;;;;5056739;28;20097;-82
2022/04/20 11:36:12;;;;;;;14.52;11.95;;;;;;;;;;5057536;28;20021;-81
2022/04/20 11:38:42;;;;;;;15.00;13.18;;;;;;;;;;5056866;28;20060;-82
2022/04/20 11:41:14;;;;;;;14.60;12.35;;;;;;;;;;5065356;28;20483;-82
2022/04/20 11:43:41;;;;;;;15.27;12.98;;;;;;;;;;5039454;28;20024;-81
2022/04/20 11:46:07;;;;;;;16.05;13.43;;;;;;;;;;5037594;28;20119;-82
2022/04/20 11:48:35;;;;;;;15.77;13.18;;;;;;;;;;5039413;28;20037;-81
2022/04/20 11:51:01;;;;;;;17.67;14.13;;;;;;;;;;5047038;28;20465;-82
2022/04/20 11:53:38;;;;;;;16.13;13.38;;;;;;;;;;5054641;28;20033;-82
2022/04/20 11:56:05;;;;;;;15.30;12.70;;;;;;;;;;5034322;28;20067;-82
2022/04/20 11:58:31;;;;;;;13.40;11.95;;;;;;;;;;5041781;28;20061;-81
2022/04/20 12:00:58;;;;;;;15.20;13.60;;;;;;;;;;5033922;28;20029;-81
2022/04/20 12:03:24;;;;;;;17.42;13.57;;;;;;;;;;5033624;28;20044;-81
2022/04/20 12:06:01;;;;;;;15.57;13.68;;;;;;;;;;5046086;28;20029;-82
2022/04/20 12:08:27;;;;;;;14.52;12.50;;;;;;;;;;5054612;28;20044;-81
2022/04/20 12:10:53;;;;;;;14.55;12.48;;;;;;;;;;5036806;28;20034;-81
2022/04/20 12:13:26;;;;;;;14.73;11.93;;;;;;;;;;5034359;28;20075;-82
2022/04/20 12:16:05;;;;;;;15.38;12.48;;;;;;;;;;5035688;28;20025;-81
2022/04/20 12:18:36;;;;;;;13.77;11.75;;;;;;;;;;5037695;28;20036;-81
2022/04/20 12:21:07;;;;;;;12.05;10.68;;;;;;;;;;5045007;28;20054;-81
2022/04/20 12:23:34;;;;;;;12.95;10.80;;;;;;;;;;5040867;28;20502;-81
2022/04/20 12:26:02;;;;;;;11.70;9.68;;;;;;;;;;5033506;28;20504;-81
2022/04/20 12:28:42;;;;;;;12.60;10.30;;;;;;;;;;5041061;28;20036;-81
2022/04/20 12:31:09;;;;;;;13.63;11.13;;;;;;;;;;5057009;28;20114;-81
2022/04/20 12:33:38;;;;;;;12.48;10.32;;;;;;;;;;5058945;28;20110;-81
2022/04/20 12:36:09;;;;;;;15.43;11.02;;;;;;;;;;5041153;28;20545;-81
2022/04/20 12:38:42;;;;;;;11.65;9.70;;;;;;;;;;5040491;28;20026;-81
2022/04/20 12:41:29;;;;;;;12.40;10.50;;;;;;;;;;5042066;28;20527;-81
2022/04/20 12:43:55;;;;;;;13.13;11.18;;;;;;;;;;5057368;28;20021;-81
2022/04/20 12:46:21;;;;;;;11.93;10.55;;;;;;;;;;5037243;28;20097;-81
2022/04/20 12:48:47;;;;;;;12.70;10.85;;;;;;;;;;5037603;28;20053;-81
2022/04/20 12:51:23;;;;;;;13.38;10.70;;;;;;;;;;5037381;28;20032;-81
2022/04/20 12:53:50;;;;;;;13.07;11.35;;;;;;;;;;5040519;28;20029;-81
2022/04/20 13:02:03;;;;;;;12.00;9.73;;;;;;;;;;5037692;28;20048;-81
2022/04/20 13:04:30;;;;;;;12.25;10.30;;;;;;;;;;5059417;28;20024;-82
2022/04/20 13:06:56;;;;;;;11.75;9.65;;;;;;;;;;5058477;28;20044;-81
2022/04/20 13:09:22;;;;;;;14.00;11.90;;;;;;;;;;5042758;28;20491;-82
2022/04/20 13:11:48;;;;;;;13.27;11.02;;;;;;;;;;5057143;28;20025;-81
2022/04/20 13:14:14;;;;;;;11.93;10.48;;;;;;;;;;5057819;28;20119;-82
2022/04/20 13:16:40;;;;;;;12.35;10.00;;;;;;;;;;5056249;28;20475;-81
2022/04/20 13:19:07;;;;;;;12.10;10.32;;;;;;;;;;5055990;28;20255;-83
2022/04/20 13:21:33;;;;;;;13.23;11.50;;;;;;;;;;5058540;28;20041;-81
2022/04/20 13:23:59;;;;;;;12.73;10.80;;;;;;;;;;5038944;28;20025;-82
2022/04/20 13:29:14;;;;;;;12.10;10.13;;;;;;;;;;5037453;28;20396;-81
2022/04/20 13:31:40;;;;;;;11.85;9.50;;;;;;;;;;5036021;28;20025;-82
2022/04/20 13:34:06;;;;;;;12.25;10.50;;;;;;;;;;5036715;28;20106;-82
2022/04/20 13:36:32;;;;;;;12.07;10.10;;;;;;;;;;5035271;28;20475;-82
2022/04/20 13:38:58;;;;;;;12.13;9.57;;;;;;;;;;5035283;28;20037;-82
2022/04/20 13:41:25;;;;;;;11.25;10.05;;;;;;;;;;5024370;28;20022;-82
2022/04/20 13:43:51;;;;;;;12.50;10.90;;;;;;;;;;5035854;28;20478;-82
2022/04/20 13:46:17;;;;;;;14.55;11.02;;;;;;;;;;5035820;28;20045;-81
2022/04/20 13:48:43;;;;;;;13.10;11.35;;;;;;;;;;5035231;28;20046;-81
2022/04/20 13:51:09;;;;;;;12.43;10.02;;;;;;;;;;5036482;28;20030;-83
2022/04/20 13:53:35;;;;;;;11.57;10.38;;;;;;;;;;5035767;28;20045;-82
2022/04/20 13:56:01;;;;;;;11.07;9.85;;;;;;;;;;5036384;28;20030;-82
2022/04/20 13:58:27;;;;;;;11.80;9.75;;;;;;;;;;5037139;28;20018;-82
2022/04/20 14:00:55;;;;;;;11.88;9.57;;;;;;;;;;5035760;28;20018;-82
2022/04/20 14:03:21;;;;;;;11.98;10.32;;;;;;;;;;5035919;28;20124;-82
2022/04/20 14:05:47;;;;;;;12.50;10.00;;;;;;;;;;5054611;28;20024;-82
2022/04/20 14:08:13;;;;;;;12.73;10.25;;;;;;;;;;5046486;28;20531;-82
2022/04/20 14:10:39;;;;;;;14.23;11.50;;;;;;;;;;5031977;28;20048;-82
2022/04/20 14:13:06;;;;;;;13.93;11.02;;;;;;;;;;5025600;28;20025;-83
2022/04/20 14:15:32;;;;;;;13.05;11.65;;;;;;;;;;5056330;28;20027;-83
2022/04/20 14:17:58;;;;;;;14.50;11.80;;;;;;;;;;5027241;28;20065;-83
2022/04/20 14:20:24;;;;;;;15.07;11.80;;;;;;;;;;5037483;28;20025;-83
2022/04/20 14:22:50;;;;;;;13.85;11.50;;;;;;;;;;5044331;28;20036;-84
2022/04/20 14:33:30;;;;;;;13.13;9.13;;;;;;;;;;5072019;28;20097;-83
2022/04/20 14:35:57;;;;;;;11.63;9.43;;;;;;;;;;5051794;28;20025;-84
2022/04/20 14:38:24;;;;;;;11.70;10.45;;;;;;;;;;5051547;28;20093;-83
2022/04/20 14:40:51;;;;;;;11.13;9.60;;;;;;;;;;5049758;28;20029;-83
2022/04/20 14:43:17;;;;;;;11.77;10.18;;;;;;;;;;5050413;28;20044;-83
2022/04/20 14:45:43;;;;;;;11.38;9.93;;;;;;;;;;5049657;28;20021;-82
2022/04/20 14:48:10;;;;;;;11.43;8.65;;;;;;;;;;5069889;28;20100;-82
2022/04/20 14:50:36;;;;;;;10.15;8.68;;;;;;;;;;5059311;28;20021;-83
2022/04/20 14:53:02;;;;;;;10.45;9.02;;;;;;;;;;5052668;28;20009;-83
2022/04/20 14:55:29;;;;;;;11.05;9.18;;;;;;;;;;5051296;28;20037;-83
2022/04/20 14:57:56;;;;;;;11.35;10.10;;;;;;;;;;5054942;28;20029;-83
2022/04/20 15:00:22;;;;;;;10.32;8.60;;;;;;;;;;5069605;28;20021;-83
2022/04/20 15:02:50;;;;;;;10.90;9.20;;;;;;;;;;5070230;28;20024;-83
2022/04/20 15:05:17;;;;;;;12.38;9.65;;;;;;;;;;5070408;28;20507;-83
2022/04/20 15:07:44;;;;;;;11.07;9.18;;;;;;;;;;5057385;28;20037;-82
2022/04/20 15:10:10;;;;;;;11.27;9.30;;;;;;;;;;5047516;28;20048;-82
2022/04/20 15:12:37;;;;;;;11.68;9.10;;;;;;;;;;5049845;28;20029;-82